Latest Weather Observations for Derby

IDW60801

Issued at 10:43 pm WST Saturday 23 January 2021 (issued every 10 minutes, with the page automatically refreshed every 10 minutes)

About weather observations | Map of weather stations | Latest weather observations for WA | Other Formats
Station Details ID: 003032 Name: DERBY AERO Lat: -17.37 Lon: 123.66 Height: 6.2 m
Data from the previous 72 hours. | See also: Recent months at Derby
Date/Time
WST
Temp
°C
App
Temp
°C
Dew
Point
°C
Rel
Hum
%
Delta-T
°C
Wind Press
QNH
hPa
Press
MSL
hPa
Rain since
9am
mm
Dir  Spd
km/h
Gust
km/h
Spd
kts
Gust
kts
23/10:30pm 28.1 33.0 26.9 93 0.9 NW 15 19 8 10 1006.2 1006.2 19.6
23/10:00pm 28.1 33.3 26.9 93 0.9 WNW 13 15 7 8 1006.4 1006.4 19.6
23/09:30pm 28.2 32.7 26.4 90 1.3 NW 15 19 8 10 1006.3 1006.3 19.6
23/09:00pm 28.2 32.2 26.2 89 1.4 NW 17 19 9 10 1006.1 1006.1 19.6
23/08:30pm 28.4 32.5 25.8 86 1.8 WNW 15 20 8 11 1005.6 1005.5 19.6
23/08:00pm 28.4 32.5 25.8 86 1.8 WNW 15 20 8 11 1005.2 1005.1 19.6
23/07:30pm 28.3 32.1 25.9 87 1.7 WNW 17 20 9 11 1004.9 1004.8 19.6
23/07:00pm 28.3 31.8 25.5 85 2.0 WNW 17 19 9 10 1004.7 1004.6 19.6
23/06:30pm 28.2 31.8 25.6 86 1.8 WNW 17 20 9 11 1004.3 1004.2 19.6
23/06:00pm 28.6 31.6 25.6 84 2.1 NW 20 24 11 13 1004.1 1004.0 19.6
23/05:30pm 28.6 31.3 25.0 81 2.5 WNW 20 30 11 16 1003.9 1003.8 19.6
23/05:00pm 28.8 30.2 25.4 82 2.4 WNW 28 33 15 18 1003.7 1003.6 19.6
23/04:30pm 28.6 29.7 25.0 81 2.5 WNW 28 37 15 20 1003.2 1003.1 19.6
23/04:00pm 28.5 29.3 25.1 82 2.4 WNW 30 37 16 20 1003.2 1003.1 19.6
23/03:30pm 28.2 30.3 25.4 85 2.0 NW 24 32 13 17 1003.0 1002.9 19.6
23/03:00pm 27.6 27.6 24.4 83 2.2 NW 32 37 17 20 1003.1 1003.0 19.6
23/02:30pm 27.0 30.2 25.6 92 1.0 NNW 19 24 10 13 1003.0 1002.9 19.6
23/02:07pm 26.4 27.8 25.4 94 0.7 NNW 28 35 15 19 1003.6 1003.5 19.6
23/02:00pm 26.3 27.1 25.1 93 0.8 NW 30 41 16 22 1003.7 1003.6 19.6
23/01:43pm 26.0 26.3 25.8 99 0.1 NW 35 54 19 29 1003.7 1003.6 17.2
23/01:37pm 26.1 24.8 25.6 97 0.4 WNW 43 54 23 29 1003.4 1003.3 12.0
23/01:30pm 26.7 25.3 24.2 86 1.7 NW 39 54 21 29 1003.1 1003.0 4.0
23/01:27pm 28.9 28.5 24.0 75 3.4 NNW 33 54 18 29 1003.0 1002.9 2.4
23/01:26pm 30.6 30.9 25.2 73 3.8 NNW 33 54 18 29 1002.9 1002.8 2.4
23/01:00pm 31.7 33.1 26.0 72 4.1 NNW 30 39 16 21 1003.0 1002.9 2.4
23/12:30pm 30.1 33.9 26.5 81 2.6 N 19 26 10 14 1003.4 1003.3 2.4
23/12:02pm 27.3 29.2 24.4 84 2.0 N 22 32 12 17 1003.6 1003.5 2.4
23/12:00pm 27.2 28.7 24.3 84 2.0 NNW 24 32 13 17 1003.7 1003.6 2.4
23/11:45am 26.9 25.8 24.2 85 1.9 NW 37 50 20 27 1003.6 1003.5 2.0
23/11:40am 26.5 24.7 24.2 87 1.6 NW 41 56 22 30 1004.1 1004.0 1.0
23/11:32am 28.7 26.4 22.7 70 4.1 NNW 39 54 21 29 1004.4 1004.3 0.0
23/11:30am 31.0 31.1 25.4 72 4.0 NNW 35 50 19 27 1004.3 1004.2 0.0
23/11:00am 31.6 32.7 25.0 68 4.7 NNW 28 35 15 19 1004.4 1004.3 0.0
23/10:30am 31.3 33.0 24.7 68 4.6 NW 24 33 13 18 1004.7 1004.6 0.0
23/10:00am 31.6 34.0 26.4 74 3.7 NW 26 33 14 18 1005.0 1004.9 0.0
23/09:30am 31.3 32.8 25.6 71 4.0 NW 28 35 15 19 1005.4 1005.3 0.0
23/09:00am 30.5 31.0 24.6 70 4.1 NW 30 37 16 20 1005.5 1005.4 27.8
23/08:30am 30.2 30.7 23.9 69 4.4 NW 28 35 15 19 1005.3 1005.2 27.8
23/08:00am 30.0 32.0 24.6 73 3.8 WNW 22 28 12 15 1005.2 1005.1 27.8
23/07:30am 29.2 30.8 23.9 73 3.7 WNW 22 28 12 15 1005.0 1004.9 27.8
23/07:00am 28.4 31.4 24.6 80 2.7 WNW 17 20 9 11 1005.0 1004.9 27.8
23/06:30am 27.5 30.9 24.6 84 2.0 WNW 15 20 8 11 1004.5 1004.4 27.8
23/06:00am 27.0 30.4 24.6 87 1.7 WNW 15 19 8 10 1004.0 1003.9 27.8
23/05:30am 27.1 30.0 24.4 85 1.9 WNW 17 20 9 11 1003.5 1003.4 27.8
23/05:00am 27.5 29.5 24.6 84 2.0 WNW 22 28 12 15 1003.3 1003.2 27.8
23/04:30am 27.5 29.2 24.7 85 1.9 NW 24 30 13 16 1003.0 1002.9 27.8
23/04:00am 27.4 29.3 25.0 87 1.7 NW 24 28 13 15 1002.6 1002.5 27.8
23/03:30am 27.2 29.3 24.7 86 1.7 NW 22 28 12 15 1002.3 1002.2 27.8
23/03:00am 27.0 29.0 24.6 87 1.7 NW 22 28 12 15 1002.2 1002.1 27.8
23/02:30am 27.1 27.1 23.8 82 2.3 NW 30 39 16 21 1001.9 1001.8 27.8
23/02:00am 27.4 29.2 25.4 89 1.4 WNW 26 35 14 19 1002.2 1002.1 27.6
23/01:30am 27.0 28.4 25.4 91 1.1 WNW 28 33 15 18 1002.4 1002.3 27.6
23/01:00am 27.4 29.6 24.8 86 1.8 NW 22 30 12 16 1002.7 1002.6 27.6
23/12:30am 26.8 28.8 24.5 87 1.6 WNW 22 28 12 15 1003.2 1003.1 27.6
23/12:00am 27.6 28.6 24.8 85 2.0 NW 28 33 15 18 1003.1 1003.0 27.6
 
Date/Time
WST
Temp
°C
App
Temp
°C
Dew
Point
°C
Rel
Hum
%
Delta-T
°C
Wind Press
QNH
hPa
Press
MSL
hPa
Rain since
9am
mm
Dir  Spd
km/h
Gust
km/h
Spd
kts
Gust
kts
22/11:30pm 27.3 28.9 25.7 91 1.1 NW 28 33 15 18 1003.4 1003.3 27.6
22/11:00pm 26.9 30.9 26.7 99 0.1 N 19 30 10 16 1003.6 1003.5 27.4
22/10:48pm 26.7 30.9 26.5 99 0.1 N 17 20 9 11 1003.7 1003.6 27.4
22/10:38pm 26.8 30.4 26.5 98 0.2 N 20 28 11 15 1003.9 1003.8 27.4
22/10:30pm 26.9 29.8 26.0 95 0.6 N 22 26 12 14 1004.0 1003.9 26.4
22/10:00pm 26.5 29.6 26.3 99 0.1 N 22 30 12 16 1003.9 1003.8 26.2
22/09:52pm 26.3 28.9 26.1 99 0.1 NNW 24 30 13 16 1003.9 1003.8 26.2
22/09:45pm 26.1 27.8 25.9 99 0.1 NNW 28 37 15 20 1003.8 1003.7 26.2
22/09:37pm 25.5 25.5 25.3 99 0.1 NNW 35 54 19 29 1004.0 1003.9 26.0
22/09:34pm 25.3 24.7 25.0 98 0.2 NNW 37 54 20 29 1004.0 1003.9 25.4
22/09:30pm 25.4 25.3 25.1 98 0.2 N 35 54 19 29 1004.1 1004.0 24.4
22/09:19pm 26.6 28.6 26.4 99 0.1 N 28 48 15 26 1003.8 1003.7 19.8
22/09:06pm 26.9 31.2 26.7 99 0.1 N 17 24 9 13 1003.7 1003.6 15.6
22/09:00pm 26.9 31.2 26.7 99 0.1 NNE 17 22 9 12 1003.4 1003.3 12.8
22/08:45pm 26.9 29.9 26.7 99 0.1 N 24 35 13 19 1003.4 1003.3 12.6
22/08:30pm 26.9 29.5 26.7 99 0.1 N 26 35 14 19 1003.6 1003.5 12.6
22/08:26pm 26.9 29.6 26.2 96 0.5 N 24 35 13 19 1003.6 1003.5 12.0
22/08:00pm 27.3 30.3 26.1 93 0.9 NNW 22 32 12 17 1003.3 1003.2 10.4
22/07:47pm 27.5 31.3 25.9 91 1.1 N 17 26 9 14 1003.2 1003.1 9.8
22/07:30pm 27.2 29.2 25.8 92 1.0 NNW 26 39 14 21 1003.0 1002.9 9.8
22/07:27pm 27.4 29.9 26.0 92 1.0 NNW 24 39 13 21 1003.1 1003.0 8.8
22/07:00pm 28.5 30.6 25.3 83 2.3 N 24 39 13 21 1002.5 1002.4 7.4
22/06:30pm 28.3 30.5 25.5 85 2.0 N 24 32 13 17 1002.2 1002.1 7.4
22/06:00pm 28.3 30.5 25.5 85 2.0 N 24 33 13 18 1002.1 1002.0 7.4
22/05:30pm 27.8 30.8 26.2 91 1.1 N 22 30 12 16 1001.9 1001.8 7.4
22/05:00pm 27.5 30.0 25.9 91 1.1 N 24 35 13 19 1001.6 1001.5 7.4
22/04:44pm 27.0 29.5 26.0 94 0.7 N 24 30 13 16 1001.6 1001.5 7.4
22/04:30pm 27.0 27.1 26.1 95 0.6 N 37 59 20 32 1001.5 1001.4 7.2
22/04:26pm 27.2 27.3 26.0 93 0.8 NNW 37 59 20 32 1001.6 1001.5 7.2
22/04:00pm 27.5 27.0 25.1 87 1.7 NNW 37 57 20 31 1001.4 1001.3 6.8
22/03:57pm 28.9 29.7 25.7 83 2.3 NNW 32 52 17 28 1001.4 1001.3 6.8
22/03:30pm 28.6 31.9 26.6 89 1.4 N 22 30 12 16 1001.1 1001.0 6.8
22/03:25pm 28.5 31.8 27.1 92 1.0 N 24 30 13 16 1001.2 1001.1 6.8
22/03:05pm 28.0 30.6 26.6 92 1.0 NNW 26 37 14 20 1001.7 1001.6 6.2
22/03:00pm 28.4 31.6 26.4 89 1.4 NNW 22 30 12 16 1001.5 1001.4 4.4
22/02:37pm 28.6 29.6 24.8 80 2.7 NNW 28 46 15 25 1001.7 1001.6 4.2
22/02:30pm 29.3 30.4 25.5 80 2.7 N 30 39 16 21 1001.6 1001.5 4.0
22/02:06pm 29.4 30.8 25.4 79 2.8 N 28 46 15 25 1001.8 1001.7 4.0
22/02:00pm 29.6 30.2 25.4 78 3.0 N 32 41 17 22 1001.8 1001.7 4.0
22/01:37pm 30.2 30.7 25.5 76 3.3 N 33 52 18 28 1001.8 1001.7 4.0
22/01:30pm 29.8 29.4 25.3 77 3.2 N 37 54 20 29 1002.2 1002.1 4.0
22/01:07pm 30.9 32.2 25.9 74 3.6 NNE 30 48 16 26 1002.1 1002.0 4.0
22/01:00pm 30.8 31.1 24.9 71 4.2 NNE 32 48 17 26 1002.1 1002.0 4.0
22/12:30pm 29.9 31.2 25.9 79 2.8 NNE 30 43 16 23 1002.6 1002.5 4.0
22/12:15pm 29.6 31.1 25.6 79 2.8 NNE 28 41 15 22 1002.8 1002.7 4.0
22/12:00pm 28.8 30.2 26.0 85 2.0 N 30 41 16 22 1003.3 1003.2 4.0
22/11:59am 28.7 29.4 25.5 83 2.3 N 32 43 17 23 1003.3 1003.2 4.0
22/11:30am 30.6 31.6 25.4 74 3.7 NNE 30 41 16 22 1003.8 1003.7 3.2
22/11:00am 29.5 31.1 25.7 80 2.7 NNE 28 39 15 21 1004.3 1004.2 3.2
22/10:30am 28.7 31.3 26.1 86 1.8 NNE 24 32 13 17 1004.9 1004.8 3.2
22/10:16am 28.1 30.4 25.7 87 1.7 NNE 24 39 13 21 1004.9 1004.8 3.2
22/10:00am 27.7 30.1 26.3 92 1.0 NNE 26 37 14 20 1005.1 1005.0 3.0
22/09:54am 27.8 29.4 25.8 89 1.4 NNE 28 37 15 20 1005.2 1005.1 1.6
22/09:30am 29.6 32.3 26.2 82 2.4 NE 24 39 13 21 1004.7 1004.6 0.0
22/09:00am 28.1 30.4 25.7 87 1.7 NNE 24 33 13 18 1005.1 1005.0 5.6
22/08:39am 27.9 30.4 25.9 89 1.4 NNE 24 32 13 17 1005.3 1005.2 5.6
22/08:30am 28.0 30.8 25.8 88 1.6 NNE 22 28 12 15 1005.2 1005.1 5.6
22/08:29am 28.0 31.2 25.8 88 1.6 NE 20 28 11 15 1005.2 1005.1 5.6
22/08:00am 27.7 30.7 25.5 88 1.6 NE 20 28 11 15 1005.6 1005.5 5.6
22/07:30am 27.1 30.4 25.7 92 1.0 NNE 19 28 10 15 1005.9 1005.8 5.6
22/07:00am 27.0 30.4 25.2 90 1.3 NE 17 24 9 13 1005.3 1005.2 5.4
22/06:30am 26.5 29.4 25.1 92 1.0 NE 19 24 10 13 1004.8 1004.7 5.4
22/06:00am 26.2 29.2 25.2 94 0.7 NE 19 26 10 14 1004.5 1004.4 5.4
22/05:30am 26.0 28.9 25.1 95 0.6 NE 19 28 10 15 1004.2 1004.1 5.4
22/05:00am 26.0 29.8 25.3 96 0.5 NE 15 22 8 12 1004.0 1003.9 5.4
22/04:30am 26.1 29.9 25.9 99 0.1 NE 17 24 9 13 1004.0 1003.9 5.4
22/04:00am 26.2 30.1 25.5 96 0.5 NE 15 24 8 13 1004.1 1004.0 4.4
22/03:30am 26.1 29.9 25.9 99 0.1 NE 17 24 9 13 1004.2 1004.1 4.4
22/03:00am 26.1 29.7 25.6 97 0.4 NE 17 20 9 11 1004.0 1003.9 4.4
22/02:30am 26.1 29.3 25.6 97 0.4 NE 19 26 10 14 1004.4 1004.3 4.4
22/02:00am 26.4 30.4 26.2 99 0.1 ENE 17 22 9 12 1004.5 1004.4 4.4
22/01:30am 26.4 30.8 26.2 99 0.1 NE 15 19 8 10 1004.6 1004.5 4.2
22/01:00am 26.5 30.6 25.8 96 0.5 NNE 15 19 8 10 1004.8 1004.7 4.0
22/12:30am 26.4 30.3 25.5 95 0.6 NE 15 20 8 11 1004.9 1004.8 4.0
22/12:00am 26.4 31.5 26.1 98 0.2 NE 11 17 6 9 1005.9 1005.8 4.0
 
Date/Time
WST
Temp
°C
App
Temp
°C
Dew
Point
°C
Rel
Hum
%
Delta-T
°C
Wind Press
QNH
hPa
Press
MSL
hPa
Rain since
9am
mm
Dir  Spd
km/h
Gust
km/h
Spd
kts
Gust
kts
21/11:30pm 26.6 30.0 25.9 96 0.5 NE 19 26 10 14 1006.1 1006.1 3.8
21/11:00pm 26.7 31.5 26.2 97 0.4 NE 13 17 7 9 1006.2 1006.2 3.6
21/10:30pm 26.7 31.2 25.8 95 0.6 NE 13 19 7 10 1006.6 1006.6 3.6
21/10:00pm 26.7 30.8 25.8 95 0.6 NE 15 20 8 11 1006.4 1006.4 3.6
21/09:42pm 26.6 30.8 25.9 96 0.5 NE 15 24 8 13 1006.4 1006.4 3.6
21/09:30pm 26.8 30.9 25.8 94 0.7 NE 15 24 8 13 1006.2 1006.2 3.6
21/09:00pm 26.8 30.5 25.2 91 1.1 NE 15 22 8 12 1006.1 1006.1 3.0
21/08:30pm 27.0 30.4 25.2 90 1.3 NE 17 24 9 13 1005.6 1005.5 3.0
21/08:00pm 27.0 30.2 25.0 89 1.4 NE 17 22 9 12 1005.5 1005.4 3.0
21/07:30pm 27.2 31.3 25.2 89 1.4 NE 13 19 7 10 1005.4 1005.3 3.0
21/07:00pm 27.2 30.8 25.0 88 1.5 NE 15 22 8 12 1005.1 1005.0 3.0
21/06:30pm 26.9 29.4 24.7 88 1.5 NNE 20 26 11 14 1004.9 1004.8 3.0
21/06:00pm 27.1 29.1 24.6 86 1.7 NNE 22 28 12 15 1004.2 1004.1 3.0
21/05:30pm 27.5 29.6 24.7 85 1.9 NNE 22 32 12 17 1003.7 1003.6 2.8
21/05:00pm 27.2 30.6 25.2 89 1.4 NNE 17 24 9 13 1003.8 1003.7 2.8
21/04:30pm 27.1 32.1 26.6 97 0.4 N 13 17 7 9 1004.0 1003.9 2.6
21/04:00pm 26.9 31.8 25.9 94 0.7 ENE 11 19 6 10 1003.9 1003.8 2.0
21/03:30pm 27.5 30.5 24.7 85 1.9 NE 17 30 9 16 1004.8 1004.7 1.0
21/03:00pm 29.2 31.9 25.6 81 2.6 NNE 22 32 12 17 1004.3 1004.2 0.6
21/02:30pm 29.7 30.7 24.8 75 3.4 NNE 28 41 15 22 1004.4 1004.3 0.4
21/02:00pm 32.9 34.1 23.8 58 6.4 NNE 24 33 13 18 1003.6 1003.5 0.2
21/01:30pm 33.2 33.4 23.5 56 6.7 N 28 35 15 19 1004.5 1004.4 0.2
21/01:00pm 33.6 34.1 23.9 57 6.8 NNE 28 44 15 24 1004.8 1004.7 0.2
21/12:30pm 30.2 32.7 25.9 78 3.1 N 24 44 13 24 1005.0 1004.9 0.2
21/12:15pm 31.3 31.3 23.7 64 5.3 N 30 48 16 26 1004.9 1004.8 0.0
21/12:00pm 32.8 34.3 24.3 61 6.0 N 24 32 13 17 1005.2 1005.1 0.0
21/11:30am 33.7 33.5 23.4 55 7.2 NNE 30 44 16 24 1005.2 1005.1 0.0
21/11:00am 33.2 34.8 23.8 57 6.6 NNE 22 33 12 18 1005.6 1005.5 0.0
21/10:30am 32.3 34.7 24.6 64 5.4 NE 20 35 11 19 1005.7 1005.6 0.0
21/10:00am 31.6 35.6 25.0 68 4.7 ENE 13 19 7 10 1006.6 1006.6 0.0
21/09:30am 29.8 35.7 26.2 81 2.6 ENE 7 9 4 5 1006.6 1006.6 0.0
21/09:00am 28.6 35.2 25.2 82 2.4 CALM 0 6 0 3 1007.1 1007.1 4.0
21/08:30am 27.9 32.8 25.3 86 1.8 W 9 13 5 7 1007.5 1007.5 4.0
21/08:00am 27.6 33.3 25.6 89 1.4 SSW 6 9 3 5 1006.8 1006.8 4.0
21/07:30am 26.9 31.5 25.3 91 1.1 E 11 17 6 9 1006.4 1006.4 3.6
21/07:00am 26.4 31.1 25.5 95 0.6 ESE 11 13 6 7 1006.7 1006.7 3.0
21/06:30am 26.4 31.9 26.2 99 0.1 ESE 9 13 5 7 1007.1 1007.1 2.8
21/06:00am 26.3 31.8 26.1 99 0.1 ESE 9 11 5 6 1007.2 1007.2 2.8
21/05:30am 26.6 32.6 26.3 98 0.2 SSE 7 13 4 7 1007.0 1007.0 2.6
21/05:00am 26.6 32.7 25.7 95 0.6 WNW 4 6 2 3 1007.3 1007.3 2.2
21/04:30am 26.4 31.8 25.5 95 0.6 WNW 7 7 4 4 1006.9 1006.9 2.0
21/04:00am 26.3 30.7 25.1 93 0.8 SE 11 19 6 10 1006.1 1006.1 1.8
21/03:30am 26.6 30.6 25.0 91 1.1 ESE 13 17 7 9 1006.0 1005.9 1.4
21/03:00am 27.0 31.9 24.6 87 1.7 NE 7 9 4 5 1006.9 1006.9 1.2
21/02:30am 27.2 31.6 24.5 85 1.9 NE 9 9 5 5 1007.2 1007.2 0.8
21/02:00am 27.4 31.6 24.1 82 2.3 ENE 9 13 5 7 1006.8 1006.8 0.4
21/01:30am 28.4 31.5 23.5 75 3.4 ENE 13 17 7 9 1006.7 1006.7 0.0
21/01:00am 28.6 31.8 23.7 75 3.4 ENE 13 17 7 9 1006.6 1006.6 0.0
21/12:30am 28.4 31.3 23.8 76 3.2 ENE 15 22 8 12 1006.5 1006.5 0.0
21/12:00am 28.7 31.5 23.6 74 3.5 E 15 20 8 11 1006.5 1006.5 0.0
 
Date/Time
WST
Temp
°C
App
Temp
°C
Dew
Point
°C
Rel
Hum
%
Delta-T
°C
Wind Press
QNH
hPa
Press
MSL
hPa
Rain since
9am
mm
Dir  Spd
km/h
Gust
km/h
Spd
kts
Gust
kts
20/11:30pm 29.0 31.4 23.7 73 3.7 E 17 22 9 12 1007.1 1007.1 0.0
20/11:00pm 28.8 32.4 24.4 77 3.1 E 13 17 7 9 1007.3 1007.3 0.0

Other formats

Comma delimited format used in spreadsheet applications
http://www.bom.gov.au/fwo/IDW60801/IDW60801.95205.axf

JavaScript Object Notation format (JSON) in row-major order
http://www.bom.gov.au/fwo/IDW60801/IDW60801.95205.json

Data quality

Most of these data are generated automatically and are frequently updated. Quality checks on data are not normally performed. It is possible for incorrect values to appear. Refer to information at About Latest Weather Observations and please check the disclaimer before using these data.